Time;durP1;ratioP1;P1;durP2;ratioP2;P2;SDS_P1;SDS_P2;PMS_P1;PMS_P2;Temp;Humidity;BMP_temperature;BMP_pressure;BME280_temperature;BME280_humidity;BME280_pressure;Samples;Min_cycle;Max_cycle;Signal;HPM_P1;HPM_P2
2021/10/13 00:01:51;;;;;;;6.22;2.95;;;10.30;79.10;;;;;;5072212;28;20044;-78
2021/10/13 00:04:18;;;;;;;6.63;3.15;;;10.20;79.00;;;;;;5072470;28;20447;-78
2021/10/13 00:06:45;;;;;;;6.45;2.85;;;10.20;79.00;;;;;;5072443;28;20094;-78
2021/10/13 00:09:12;;;;;;;5.53;2.60;;;10.20;79.00;;;;;;5072375;28;20531;-78
2021/10/13 00:11:39;;;;;;;7.72;2.70;;;10.10;79.00;;;;;;5072577;28;20063;-78
2021/10/13 00:14:07;;;;;;;8.30;3.38;;;10.10;78.90;;;;;;5072577;28;20052;-78
2021/10/13 00:16:34;;;;;;;6.78;2.90;;;10.10;78.90;;;;;;5071937;28;20173;-78
2021/10/13 00:19:02;;;;;;;5.35;2.97;;;10.00;78.90;;;;;;5071956;28;20139;-78
2021/10/13 00:21:29;;;;;;;10.18;3.20;;;10.00;78.90;;;;;;5072276;28;20105;-78
2021/10/13 00:23:55;;;;;;;5.03;2.70;;;10.00;78.90;;;;;;5072256;28;20064;-78
2021/10/13 00:26:22;;;;;;;5.30;2.60;;;10.00;78.90;;;;;;5072614;28;20048;-78
2021/10/13 00:28:49;;;;;;;7.35;2.38;;;9.90;78.90;;;;;;5072012;28;20056;-78
2021/10/13 00:31:16;;;;;;;5.82;2.65;;;9.90;78.90;;;;;;5071651;28;20044;-78
2021/10/13 00:33:43;;;;;;;7.28;3.22;;;9.90;78.80;;;;;;5071915;28;20638;-78
2021/10/13 00:36:10;;;;;;;5.43;2.90;;;9.90;78.80;;;;;;5072239;28;20049;-78
2021/10/13 00:38:37;;;;;;;9.48;2.65;;;9.90;78.80;;;;;;5072068;28;20098;-78
2021/10/13 00:41:04;;;;;;;6.13;2.50;;;9.90;78.80;;;;;;5071883;28;20467;-78
2021/10/13 00:43:30;;;;;;;5.45;2.63;;;9.90;78.80;;;;;;5071871;28;20044;-78
2021/10/13 00:45:57;;;;;;;8.27;2.97;;;9.80;78.80;;;;;;5071205;28;20093;-78
2021/10/13 00:48:24;;;;;;;6.93;2.60;;;9.80;78.80;;;;;;5071637;28;20498;-78
2021/10/13 00:50:51;;;;;;;4.70;2.83;;;9.80;78.80;;;;;;5071638;28;20049;-78
2021/10/13 00:53:18;;;;;;;7.15;2.90;;;9.80;78.80;;;;;;5072287;28;20178;-78
2021/10/13 00:55:45;;;;;;;4.68;2.45;;;9.70;78.80;;;;;;5071528;28;20428;-78
2021/10/13 00:58:12;;;;;;;6.63;2.63;;;9.70;78.80;;;;;;5071042;28;20089;-77
2021/10/13 01:00:45;;;;;;;6.00;2.53;;;9.70;78.80;;;;;;5071226;28;20055;-78
2021/10/13 01:03:39;;;;;;;6.32;2.65;;;9.70;78.80;;;;;;5071361;28;20041;-78
2021/10/13 01:06:13;;;;;;;;;;;9.60;78.80;;;;;;5056315;28;20090;-78
2021/10/13 01:08:52;;;;;;;5.82;3.08;;;9.60;78.80;;;;;;5071466;28;19928;-78
2021/10/13 01:11:56;;;;;;;6.10;2.90;;;9.60;78.90;;;;;;5085642;28;20452;-78
2021/10/13 01:14:53;;;;;;;6.90;2.78;;;9.60;78.90;;;;;;5070297;28;20566;-78
2021/10/13 01:17:26;;;;;;;10.43;3.15;;;9.50;78.90;;;;;;5070152;28;20574;-78
2021/10/13 01:20:25;;;;;;;4.95;2.65;;;9.50;78.90;;;;;;5070869;28;20048;-77
2021/10/13 01:23:32;;;;;;;9.45;2.80;;;9.50;78.90;;;;;;5038308;28;20586;-78
2021/10/13 01:26:29;;;;;;;6.93;3.10;;;9.40;78.90;;;;;;5039513;28;20083;-77
2021/10/13 01:29:02;;;;;;;8.80;2.97;;;9.40;78.90;;;;;;5039471;28;20049;-78
2021/10/13 01:31:47;;;;;;;6.30;3.08;;;9.40;78.90;;;;;;5039543;28;20098;-77
2021/10/13 01:34:18;;;;;;;6.35;3.40;;;9.40;78.90;;;;;;5039550;28;20045;-78
2021/10/13 01:37:19;;;;;;;6.85;3.30;;;9.40;78.90;;;;;;5039576;28;20041;-78
2021/10/13 01:39:51;;;;;;;7.28;3.17;;;9.30;78.90;;;;;;5039290;28;20185;-78
2021/10/13 01:42:20;;;;;;;7.38;3.17;;;9.30;78.90;;;;;;5041814;28;20045;-78
2021/10/13 01:44:54;;;;;;;8.68;2.85;;;9.30;78.90;;;;;;5044226;28;20630;-78
2021/10/13 01:47:22;;;;;;;11.13;3.10;;;9.30;78.90;;;;;;5032979;28;20597;-78
2021/10/13 01:49:55;;;;;;;9.25;2.90;;;9.20;78.90;;;;;;5037739;28;20107;-78
2021/10/13 01:52:24;;;;;;;6.88;3.65;;;9.20;79.00;;;;;;5039283;28;20045;-77
2021/10/13 01:54:56;;;;;;;5.63;2.80;;;9.20;78.90;;;;;;5039175;28;20468;-78
2021/10/13 01:57:24;;;;;;;8.20;3.15;;;9.20;78.90;;;;;;5040746;28;20045;-78
2021/10/13 01:59:56;;;;;;;7.13;3.15;;;9.20;78.90;;;;;;5058442;28;20385;-78
2021/10/13 02:02:30;;;;;;;10.70;3.30;;;9.10;78.90;;;;;;5071166;28;20090;-78
2021/10/13 02:04:59;;;;;;;6.60;3.00;;;9.10;78.90;;;;;;5070602;28;20052;-78
2021/10/13 02:07:27;;;;;;;6.05;2.97;;;9.10;78.90;;;;;;5070242;28;20531;-78
2021/10/13 02:09:59;;;;;;;8.15;2.95;;;9.00;78.90;;;;;;5070261;28;20044;-78
2021/10/13 02:12:28;;;;;;;6.65;3.33;;;9.00;78.90;;;;;;5069953;28;20513;-78
2021/10/13 02:14:56;;;;;;;6.32;3.17;;;9.00;78.90;;;;;;5070323;28;20060;-78
2021/10/13 02:17:24;;;;;;;8.65;3.05;;;9.00;78.90;;;;;;5070923;28;20045;-78
2021/10/13 02:19:53;;;;;;;5.43;2.70;;;9.00;78.90;;;;;;5070074;28;20048;-79
2021/10/13 02:22:21;;;;;;;5.70;2.88;;;9.00;79.00;;;;;;5070148;28;20110;-79
2021/10/13 02:24:51;;;;;;;6.10;3.00;;;8.90;79.00;;;;;;5070086;28;20065;-79
2021/10/13 02:27:41;;;;;;;8.45;2.95;;;8.90;79.00;;;;;;5069872;28;20094;-79
2021/10/13 02:30:08;;;;;;;7.10;3.13;;;8.90;79.00;;;;;;5054806;28;20091;-79
2021/10/13 02:32:35;;;;;;;6.55;2.80;;;8.90;79.00;;;;;;5070524;28;20113;-79
2021/10/13 02:35:04;;;;;;;7.75;2.67;;;8.90;79.00;;;;;;5070265;28;20402;-79
2021/10/13 02:37:31;;;;;;;7.22;3.15;;;8.90;79.00;;;;;;5073700;28;20048;-79
2021/10/13 02:39:58;;;;;;;6.57;2.95;;;8.90;79.00;;;;;;5073753;28;20125;-79
2021/10/13 02:42:25;;;;;;;7.95;3.25;;;8.90;79.00;;;;;;5074130;28;20109;-79
2021/10/13 02:44:52;;;;;;;6.88;3.08;;;8.90;79.00;;;;;;5074129;28;20121;-79
2021/10/13 02:47:35;;;;;;;7.97;2.85;;;8.80;79.00;;;;;;5074504;28;20048;-79
2021/10/13 02:50:02;;;;;;;9.38;3.03;;;8.80;78.90;;;;;;5074073;28;20052;-79
2021/10/13 02:52:50;;;;;;;8.10;2.78;;;8.80;78.90;;;;;;5073841;28;20044;-78
2021/10/13 02:55:22;;;;;;;5.13;2.10;;;8.70;78.90;;;;;;5073375;28;20052;-79
2021/10/13 02:58:03;;;;;;;8.55;2.60;;;8.70;78.90;;;;;;5073676;28;20319;-79
2021/10/13 03:00:32;;;;;;;6.63;2.78;;;8.70;78.90;;;;;;5073779;28;20048;-79
2021/10/13 03:03:09;;;;;;;6.88;2.33;;;8.70;78.80;;;;;;5073760;28;20041;-79
2021/10/13 03:05:38;;;;;;;5.10;2.50;;;8.70;78.80;;;;;;5070388;28;20048;-79
2021/10/13 03:08:11;;;;;;;9.20;2.33;;;8.60;78.80;;;;;;5073573;28;20052;-79
2021/10/13 03:10:40;;;;;;;6.73;3.00;;;8.60;78.80;;;;;;5073218;28;20054;-79
2021/10/13 03:13:07;;;;;;;6.40;2.47;;;8.60;78.80;;;;;;5073242;28;20287;-79
2021/10/13 03:15:34;;;;;;;5.25;2.17;;;8.60;78.80;;;;;;5073518;28;20074;-79
2021/10/13 03:18:03;;;;;;;6.28;2.28;;;8.50;78.80;;;;;;5073470;28;20044;-79
2021/10/13 03:20:30;;;;;;;8.20;3.17;;;8.50;78.80;;;;;;5073806;28;20048;-79
2021/10/13 03:22:59;;;;;;;5.40;2.20;;;8.50;78.80;;;;;;5073240;28;20460;-79
2021/10/13 03:25:28;;;;;;;7.88;2.80;;;8.50;78.80;;;;;;5072628;28;20398;-79
2021/10/13 03:27:59;;;;;;;4.78;2.33;;;8.50;78.80;;;;;;5073128;28;20041;-79
2021/10/13 03:30:26;;;;;;;7.13;2.25;;;8.50;78.80;;;;;;5073395;28;20040;-79
2021/10/13 03:32:53;;;;;;;5.40;1.98;;;8.50;78.80;;;;;;5073181;28;20581;-79
2021/10/13 03:35:25;;;;;;;6.30;2.50;;;8.40;78.80;;;;;;5073565;28;20053;-79
2021/10/13 03:37:53;;;;;;;9.45;2.45;;;8.40;78.80;;;;;;5072552;28;20177;-79
2021/10/13 03:40:21;;;;;;;6.22;2.20;;;8.40;78.80;;;;;;5072939;28;20105;-79
2021/10/13 03:42:48;;;;;;;5.75;1.85;;;8.40;78.80;;;;;;5072928;28;20052;-79
2021/10/13 03:45:17;;;;;;;7.13;2.00;;;8.40;78.80;;;;;;5072904;28;20467;-79
2021/10/13 03:47:46;;;;;;;6.25;2.13;;;8.40;78.70;;;;;;5072430;28;20052;-79
2021/10/13 03:50:14;;;;;;;4.63;1.88;;;8.40;78.70;;;;;;5073330;28;20501;-79
2021/10/13 03:52:42;;;;;;;5.32;2.33;;;8.40;78.60;;;;;;5072290;28;20045;-79
2021/10/13 03:55:13;;;;;;;5.35;2.20;;;8.40;78.60;;;;;;5072673;28;20060;-79
2021/10/13 03:57:41;;;;;;;5.60;2.20;;;8.40;78.60;;;;;;5072713;28;20098;-79
2021/10/13 04:00:14;;;;;;;6.97;2.10;;;8.40;78.50;;;;;;5072607;28;20049;-79
2021/10/13 04:02:41;;;;;;;6.53;2.13;;;8.30;78.50;;;;;;5072794;28;20115;-79
2021/10/13 04:05:08;;;;;;;4.70;2.00;;;8.30;78.50;;;;;;5073062;28;20048;-79
2021/10/13 04:07:36;;;;;;;4.70;2.05;;;8.30;78.40;;;;;;5072041;28;20106;-79
2021/10/13 04:10:05;;;;;;;7.60;2.28;;;8.20;78.40;;;;;;5072349;28;20052;-79
2021/10/13 04:12:33;;;;;;;4.85;1.70;;;8.20;78.40;;;;;;5072488;28;20037;-79
2021/10/13 04:15:01;;;;;;;5.85;2.20;;;8.20;78.30;;;;;;5072417;28;20048;-79
2021/10/13 04:17:28;;;;;;;4.63;1.95;;;8.20;78.30;;;;;;5072956;28;20612;-79
2021/10/13 04:19:55;;;;;;;5.68;2.42;;;8.20;78.30;;;;;;5072111;28;20048;-79
2021/10/13 04:22:21;;;;;;;6.03;2.13;;;8.10;78.30;;;;;;5071874;28;20049;-79
2021/10/13 04:24:48;;;;;;;5.20;2.30;;;8.10;78.20;;;;;;5071962;28;20114;-78
2021/10/13 04:27:15;;;;;;;5.25;2.13;;;8.10;78.20;;;;;;5072157;28;20094;-79
2021/10/13 04:29:42;;;;;;;7.93;2.25;;;8.10;78.20;;;;;;5072234;28;20086;-79
2021/10/13 04:32:09;;;;;;;4.43;1.95;;;8.10;78.20;;;;;;5072461;28;20045;-79
2021/10/13 04:34:36;;;;;;;6.43;2.10;;;8.00;78.20;;;;;;5071945;28;20508;-79
2021/10/13 04:37:03;;;;;;;5.53;2.40;;;8.00;78.10;;;;;;5071529;28;20048;-79
2021/10/13 04:39:30;;;;;;;8.63;3.83;;;8.00;78.10;;;;;;5071971;28;20098;-79
2021/10/13 04:41:57;;;;;;;8.73;4.72;;;8.00;78.10;;;;;;5071987;28;20052;-79
2021/10/13 04:44:23;;;;;;;7.35;4.18;;;8.00;78.10;;;;;;5072261;28;20566;-79
2021/10/13 04:46:50;;;;;;;12.20;4.05;;;7.90;78.10;;;;;;5071684;28;20597;-79
2021/10/13 04:49:17;;;;;;;8.00;3.75;;;7.90;78.10;;;;;;5071499;28;20045;-79
2021/10/13 04:51:44;;;;;;;6.30;3.85;;;7.90;78.10;;;;;;5071330;28;20052;-80
2021/10/13 04:54:11;;;;;;;7.90;4.15;;;7.90;78.10;;;;;;5071746;28;20581;-79
2021/10/13 04:56:38;;;;;;;8.68;3.50;;;7.90;78.20;;;;;;5071776;28;20098;-79
2021/10/13 04:59:05;;;;;;;8.07;3.13;;;7.90;78.20;;;;;;5070820;28;20045;-79
2021/10/13 05:01:32;;;;;;;7.40;2.92;;;7.90;78.20;;;;;;5071324;28;20056;-79
2021/10/13 05:03:59;;;;;;;7.72;3.22;;;7.90;78.20;;;;;;5071364;28;20622;-80
2021/10/13 05:06:26;;;;;;;6.60;3.17;;;7.90;78.20;;;;;;5071095;28;20056;-78
2021/10/13 05:08:53;;;;;;;6.68;3.40;;;7.90;78.30;;;;;;5071135;28;20098;-79
2021/10/13 05:11:19;;;;;;;5.72;2.90;;;7.90;78.20;;;;;;5071701;28;20044;-79
2021/10/13 05:13:46;;;;;;;8.00;2.72;;;7.80;78.30;;;;;;5071203;28;20045;-79
2021/10/13 05:16:13;;;;;;;6.18;3.10;;;7.80;78.20;;;;;;5071111;28;20646;-79
2021/10/13 05:18:40;;;;;;;8.15;2.95;;;7.80;78.20;;;;;;5071055;28;20135;-79
2021/10/13 05:21:07;;;;;;;8.43;3.95;;;7.80;78.20;;;;;;5070750;28;20696;-79
2021/10/13 05:23:34;;;;;;;9.95;2.88;;;7.80;78.20;;;;;;5071617;28;20045;-79
2021/10/13 05:26:01;;;;;;;11.00;4.57;;;7.70;78.20;;;;;;5070896;28;20110;-79
2021/10/13 05:28:28;;;;;;;7.25;3.92;;;7.70;78.20;;;;;;5070909;28;20504;-79
2021/10/13 05:30:54;;;;;;;6.93;3.67;;;7.70;78.20;;;;;;5070868;28;20109;-79
2021/10/13 05:33:21;;;;;;;7.53;4.05;;;7.70;78.10;;;;;;5071085;28;20044;-79
2021/10/13 05:35:48;;;;;;;10.05;4.18;;;7.70;78.10;;;;;;5070661;28;20161;-78
2021/10/13 05:38:15;;;;;;;7.65;3.97;;;7.70;78.10;;;;;;5069231;28;20448;-79
2021/10/13 05:40:42;;;;;;;7.32;4.10;;;7.60;78.10;;;;;;5070621;28;20056;-78
2021/10/13 05:43:09;;;;;;;6.30;3.65;;;7.60;78.10;;;;;;5070650;28;20063;-79
2021/10/13 05:45:36;;;;;;;6.78;3.45;;;7.60;78.10;;;;;;5068116;28;20045;-79
2021/10/13 05:48:04;;;;;;;11.68;3.65;;;7.60;78.10;;;;;;5071075;28;20052;-79
2021/10/13 05:50:31;;;;;;;8.65;3.85;;;7.50;78.10;;;;;;5071586;28;20040;-78
2021/10/13 05:52:57;;;;;;;6.35;3.35;;;7.60;78.10;;;;;;5071513;28;20151;-79
2021/10/13 05:55:41;;;;;;;7.50;3.83;;;7.50;78.10;;;;;;5071806;28;20083;-79
2021/10/13 05:58:08;;;;;;;9.55;3.38;;;7.50;78.10;;;;;;5071315;28;20044;-78
2021/10/13 06:00:35;;;;;;;6.80;2.95;;;7.50;78.10;;;;;;5071494;28;20113;-79
2021/10/13 06:03:02;;;;;;;11.02;3.47;;;7.50;78.10;;;;;;5063039;28;20041;-78
2021/10/13 06:05:29;;;;;;;9.45;4.40;;;7.50;78.10;;;;;;5071971;28;20055;-79
2021/10/13 06:07:56;;;;;;;9.52;4.45;;;7.40;78.10;;;;;;5071410;28;20516;-79
2021/10/13 06:10:23;;;;;;;10.30;4.80;;;7.40;78.10;;;;;;5071349;28;20078;-78
2021/10/13 06:12:50;;;;;;;8.25;4.40;;;7.40;78.10;;;;;;5070843;28;20052;-79
2021/10/13 06:15:19;;;;;;;9.30;4.70;;;7.40;78.20;;;;;;5071326;28;20517;-79
2021/10/13 06:17:46;;;;;;;8.77;4.45;;;7.40;78.10;;;;;;5071209;28;20048;-79
2021/10/13 06:20:13;;;;;;;7.97;4.18;;;7.40;78.10;;;;;;5071482;28;20041;-79
2021/10/13 06:22:45;;;;;;;9.23;4.18;;;7.40;78.10;;;;;;5071113;28;20102;-79
2021/10/13 06:25:16;;;;;;;8.30;4.68;;;7.40;78.10;;;;;;5070924;28;20048;-79
2021/10/13 06:27:43;;;;;;;6.32;3.97;;;7.40;78.10;;;;;;5070575;28;20056;-79
2021/10/13 06:30:10;;;;;;;7.72;3.83;;;7.40;78.10;;;;;;5071802;28;20800;-79
2021/10/13 06:32:37;;;;;;;10.05;3.78;;;7.40;78.10;;;;;;5071509;28;20090;-79
2021/10/13 06:35:04;;;;;;;8.20;3.65;;;7.30;78.10;;;;;;5070618;28;20095;-79
2021/10/13 06:37:31;;;;;;;8.00;3.63;;;7.30;78.10;;;;;;5071005;28;20463;-79
2021/10/13 06:39:58;;;;;;;8.20;3.42;;;7.30;78.10;;;;;;5067366;28;20057;-79
2021/10/13 06:42:25;;;;;;;7.78;3.40;;;7.30;78.10;;;;;;5070890;28;20500;-78
2021/10/13 06:44:52;;;;;;;7.68;3.50;;;7.30;78.10;;;;;;5071388;28;20053;-79
2021/10/13 06:47:19;;;;;;;5.75;3.00;;;7.30;78.10;;;;;;5071311;28;20402;-79
2021/10/13 06:49:45;;;;;;;10.18;3.83;;;7.30;78.10;;;;;;5070732;28;20048;-79
2021/10/13 06:52:12;;;;;;;9.48;4.03;;;7.30;78.10;;;;;;5071117;28;20519;-78
2021/10/13 06:54:39;;;;;;;8.80;3.65;;;7.20;78.20;;;;;;5071135;28;20049;-79
2021/10/13 06:57:06;;;;;;;10.30;3.90;;;7.30;78.20;;;;;;5070776;28;20051;-79
2021/10/13 06:59:33;;;;;;;8.13;3.60;;;7.30;78.20;;;;;;5071736;28;20052;-78
2021/10/13 07:02:00;;;;;;;10.52;4.18;;;7.30;78.30;;;;;;5070482;28;20086;-79
2021/10/13 07:04:27;;;;;;;15.02;7.13;;;7.30;78.30;;;;;;5070593;28;20556;-79
2021/10/13 07:06:54;;;;;;;15.90;5.97;;;7.30;78.40;;;;;;5069885;28;20053;-79
2021/10/13 07:09:21;;;;;;;14.38;7.03;;;7.30;78.40;;;;;;5071216;28;20094;-79
2021/10/13 07:11:48;;;;;;;21.33;9.32;;;7.30;78.40;;;;;;5070710;28;20484;-79
2021/10/13 07:14:17;;;;;;;31.58;13.23;;;7.30;78.50;;;;;;5069545;28;20099;-79
2021/10/13 07:16:47;;;;;;;21.85;9.60;;;7.30;78.50;;;;;;5070397;28;20056;-79
2021/10/13 07:19:14;;;;;;;29.50;12.57;;;7.30;78.60;;;;;;5070492;28;20040;-79
2021/10/13 07:21:41;;;;;;;26.63;12.30;;;7.30;78.60;;;;;;5071093;28;20475;-79
2021/10/13 07:24:08;;;;;;;20.88;10.00;;;7.30;78.70;;;;;;5074601;28;20390;-79
2021/10/13 07:26:35;;;;;;;22.27;10.10;;;7.40;78.70;;;;;;5074611;28;20695;-79
2021/10/13 07:29:03;;;;;;;21.50;12.23;;;7.40;78.80;;;;;;5074621;28;20052;-79
2021/10/13 07:31:30;;;;;;;23.08;11.52;;;7.40;78.80;;;;;;5073678;28;20504;-79
2021/10/13 07:33:58;;;;;;;23.65;11.40;;;7.40;78.80;;;;;;5074191;28;20732;-79
2021/10/13 07:36:25;;;;;;;25.20;12.32;;;7.40;78.80;;;;;;5074400;28;20124;-79
2021/10/13 07:38:52;;;;;;;20.05;11.23;;;7.40;78.90;;;;;;5070785;28;20102;-79
2021/10/13 07:41:19;;;;;;;20.30;10.73;;;7.40;78.90;;;;;;5074552;28;20049;-79
2021/10/13 07:43:46;;;;;;;23.27;11.68;;;7.40;79.00;;;;;;5074111;28;20052;-79
2021/10/13 07:46:14;;;;;;;22.95;11.35;;;7.40;79.00;;;;;;5073505;28;20574;-79
2021/10/13 07:48:41;;;;;;;20.20;8.80;;;7.50;79.10;;;;;;5073525;28;20131;-79
2021/10/13 07:51:08;;;;;;;20.38;10.40;;;7.50;79.20;;;;;;5070310;28;20098;-79
2021/10/13 07:53:35;;;;;;;19.27;9.50;;;7.50;79.20;;;;;;5074691;28;20041;-79
2021/10/13 07:56:02;;;;;;;19.80;8.73;;;7.60;79.20;;;;;;5076777;28;20057;-79
2021/10/13 07:58:29;;;;;;;19.70;8.38;;;7.60;79.30;;;;;;5078127;28;20085;-79
2021/10/13 08:00:56;;;;;;;17.10;8.38;;;7.60;79.40;;;;;;5082784;28;20047;-79
2021/10/13 08:03:23;;;;;;;16.85;7.68;;;7.60;79.50;;;;;;5072169;28;20041;-79
2021/10/13 08:05:51;;;;;;;18.80;7.82;;;7.70;79.60;;;;;;5072396;28;20063;-78
2021/10/13 08:08:18;;;;;;;18.00;8.23;;;7.80;79.70;;;;;;5075551;28;20496;-79
2021/10/13 08:10:45;;;;;;;14.63;6.90;;;7.80;79.80;;;;;;5073084;28;20114;-79
2021/10/13 08:13:12;;;;;;;15.70;6.88;;;7.90;79.90;;;;;;5072561;28;20049;-78
2021/10/13 08:15:40;;;;;;;18.25;7.00;;;7.90;79.90;;;;;;5073092;28;20040;-79
2021/10/13 08:18:07;;;;;;;14.02;6.80;;;7.90;80.00;;;;;;5068719;28;20480;-79
2021/10/13 08:20:33;;;;;;;14.30;6.72;;;8.00;80.00;;;;;;5076774;28;20133;-79
2021/10/13 08:23:00;;;;;;;14.93;7.43;;;8.10;80.00;;;;;;5072179;28;20121;-78
2021/10/13 08:25:27;;;;;;;19.42;6.57;;;8.10;80.10;;;;;;5072587;28;20562;-79
2021/10/13 08:27:54;;;;;;;15.57;6.82;;;8.20;80.10;;;;;;5072200;28;20048;-79
2021/10/13 08:30:21;;;;;;;14.60;5.80;;;8.20;80.10;;;;;;5070535;28;20056;-79
2021/10/13 08:32:48;;;;;;;18.25;5.85;;;8.30;80.20;;;;;;5072674;28;20573;-79
2021/10/13 08:35:15;;;;;;;16.38;5.78;;;8.40;80.20;;;;;;5076918;28;20102;-79
2021/10/13 08:37:42;;;;;;;11.35;5.65;;;8.40;80.20;;;;;;5072418;28;20540;-79
2021/10/13 08:40:11;;;;;;;14.13;5.53;;;8.40;80.30;;;;;;5072414;28;20044;-78
2021/10/13 08:43:00;;;;;;;13.82;5.15;;;8.50;80.30;;;;;;5072065;28;20113;-79
2021/10/13 08:45:30;;;;;;;13.05;5.80;;;8.60;80.30;;;;;;5070934;28;20101;-78
2021/10/13 08:47:57;;;;;;;10.95;5.22;;;8.70;80.40;;;;;;5069915;28;20079;-78
2021/10/13 08:50:26;;;;;;;12.85;5.03;;;8.80;80.40;;;;;;5075723;28;20398;-78
2021/10/13 08:53:10;;;;;;;12.05;4.90;;;8.90;80.50;;;;;;5072248;28;20048;-79
2021/10/13 08:55:40;;;;;;;16.05;5.70;;;8.90;80.50;;;;;;5072091;28;20560;-79
2021/10/13 08:58:20;;;;;;;13.10;4.90;;;9.00;80.50;;;;;;5071672;28;20128;-79
2021/10/13 09:00:50;;;;;;;11.35;4.43;;;9.10;80.60;;;;;;5071948;28;20052;-78
2021/10/13 09:03:26;;;;;;;13.55;4.53;;;9.20;80.60;;;;;;5069172;28;20128;-79
2021/10/13 09:05:54;;;;;;;15.73;3.97;;;9.30;80.60;;;;;;5070504;28;20102;-78
2021/10/13 09:08:21;;;;;;;14.35;4.55;;;9.40;80.60;;;;;;5075022;28;20049;-78
2021/10/13 09:10:53;;;;;;;9.05;3.83;;;9.40;80.70;;;;;;5071988;28;20459;-78
2021/10/13 09:13:20;;;;;;;12.82;4.07;;;9.50;80.70;;;;;;5071557;28;20501;-79
2021/10/13 09:15:53;;;;;;;12.75;4.20;;;9.60;80.70;;;;;;5071671;28;20503;-78
2021/10/13 09:18:24;;;;;;;9.20;3.63;;;9.70;80.80;;;;;;5069384;28;20041;-79
2021/10/13 09:20:53;;;;;;;10.75;3.78;;;9.90;80.80;;;;;;5070971;28;20195;-79
2021/10/13 09:23:31;;;;;;;10.85;3.53;;;9.90;80.90;;;;;;5074432;28;20398;-78
2021/10/13 09:26:09;;;;;;;18.20;3.70;;;10.00;80.90;;;;;;5071001;28;20113;-79
2021/10/13 09:28:40;;;;;;;11.07;3.50;;;10.20;81.00;;;;;;5071587;28;20091;-78
2021/10/13 09:31:22;;;;;;;11.68;3.55;;;10.30;81.00;;;;;;5071528;28;20045;-78
2021/10/13 09:33:55;;;;;;;10.38;4.00;;;10.40;81.00;;;;;;5071466;28;20052;-79
2021/10/13 09:36:31;;;;;;;9.00;3.22;;;10.60;80.90;;;;;;5069443;28;20505;-79
2021/10/13 09:39:06;;;;;;;11.80;3.33;;;10.70;80.80;;;;;;5068749;28;20102;-79
2021/10/13 09:42:01;;;;;;;12.85;3.72;;;10.90;80.70;;;;;;5083181;28;20105;-79
2021/10/13 09:44:29;;;;;;;;;;;11.00;80.60;;;;;;5075203;28;20452;-79
2021/10/13 09:47:01;;;;;;;10.77;3.10;;;11.10;80.40;;;;;;5071258;28;19920;-78
2021/10/13 09:49:31;;;;;;;12.20;3.00;;;11.30;80.20;;;;;;5071433;28;20706;-78
2021/10/13 09:52:03;;;;;;;12.60;2.70;;;11.40;80.00;;;;;;5071256;28;20053;-78
2021/10/13 09:54:30;;;;;;;10.45;3.08;;;11.50;79.90;;;;;;5070341;28;20097;-79
2021/10/13 09:56:57;;;;;;;8.73;2.83;;;11.70;79.80;;;;;;5068428;28;20468;-79
2021/10/13 09:59:24;;;;;;;11.20;3.20;;;11.90;79.70;;;;;;5074419;28;20053;-79
2021/10/13 10:01:55;;;;;;;12.98;3.05;;;11.90;79.50;;;;;;5070655;28;20467;-79
2021/10/13 10:04:26;;;;;;;10.45;2.78;;;12.10;79.30;;;;;;5069813;28;20551;-78
2021/10/13 10:06:56;;;;;;;10.15;2.90;;;12.30;79.10;;;;;;5070954;28;20056;-78
2021/10/13 10:09:25;;;;;;;9.48;2.72;;;12.40;78.90;;;;;;5068564;28;20041;-78
2021/10/13 10:12:18;;;;;;;8.85;2.35;;;12.50;78.60;;;;;;5070101;28;20044;-79
2021/10/13 10:14:47;;;;;;;8.63;2.38;;;12.70;78.40;;;;;;5082144;28;20135;-78
2021/10/13 10:17:37;;;;;;;14.25;2.92;;;12.80;78.20;;;;;;5072732;28;20059;-79
2021/10/13 10:20:05;;;;;;;8.13;2.35;;;12.90;77.80;;;;;;5070980;28;21058;-78
2021/10/13 10:22:44;;;;;;;7.70;2.58;;;13.10;77.60;;;;;;5070484;28;20459;-79
2021/10/13 10:25:18;;;;;;;7.22;2.72;;;13.30;77.20;;;;;;5071812;28;20049;-79
2021/10/13 10:27:46;;;;;;;11.27;2.70;;;13.40;76.80;;;;;;5070972;28;20093;-79
2021/10/13 10:30:16;;;;;;;8.95;2.33;;;13.50;76.50;;;;;;5067558;28;20045;-79
2021/10/13 10:33:07;;;;;;;7.68;2.17;;;13.60;76.20;;;;;;5071442;28;20044;-78
2021/10/13 10:35:45;;;;;;;10.65;2.47;;;13.70;75.90;;;;;;5086889;28;20552;-78
2021/10/13 10:38:17;;;;;;;7.50;1.95;;;13.90;75.50;;;;;;5074114;28;20114;-78
2021/10/13 10:40:44;;;;;;;5.18;1.90;;;14.00;75.20;;;;;;5069680;28;20127;-79
2021/10/13 10:43:28;;;;;;;9.15;2.38;;;14.10;74.80;;;;;;5070577;28;20055;-79
2021/10/13 10:45:58;;;;;;;6.45;2.20;;;14.20;74.40;;;;;;5070618;28;20050;-79
2021/10/13 10:48:46;;;;;;;9.02;2.00;;;14.40;74.10;;;;;;5069068;28;20127;-78
2021/10/13 10:51:14;;;;;;;7.22;2.00;;;14.50;73.70;;;;;;5052568;28;20057;-79
2021/10/13 10:53:45;;;;;;;7.22;1.90;;;14.50;73.30;;;;;;5071645;28;20053;-79
2021/10/13 10:56:21;;;;;;;7.10;1.77;;;14.60;73.00;;;;;;5074196;28;20052;-79
2021/10/13 10:59:12;;;;;;;9.40;2.28;;;14.70;72.70;;;;;;5074505;28;20489;-79
2021/10/13 11:02:00;;;;;;;6.55;2.00;;;14.80;72.30;;;;;;5074332;28;20045;-79
2021/10/13 11:04:27;;;;;;;6.00;1.90;;;14.90;72.00;;;;;;5067308;28;20484;-79
2021/10/13 11:06:56;;;;;;;9.63;2.20;;;14.90;71.70;;;;;;5074585;28;20048;-79
2021/10/13 11:09:24;;;;;;;7.40;2.28;;;14.90;71.30;;;;;;5072064;28;20041;-79
2021/10/13 11:11:51;;;;;;;7.60;2.00;;;15.00;71.10;;;;;;5073469;28;20106;-79
2021/10/13 11:14:26;;;;;;;9.88;2.17;;;15.10;70.90;;;;;;5076770;28;20068;-79
2021/10/13 11:16:57;;;;;;;8.75;2.38;;;15.10;70.60;;;;;;5074039;28;20052;-79
2021/10/13 11:19:27;;;;;;;5.05;1.73;;;15.20;70.50;;;;;;5074034;28;20051;-79
2021/10/13 11:22:05;;;;;;;7.40;1.98;;;15.20;70.30;;;;;;5073549;28;20516;-79
2021/10/13 11:24:34;;;;;;;11.52;2.38;;;15.20;70.00;;;;;;5073209;28;20048;-78
2021/10/13 11:27:02;;;;;;;8.65;2.20;;;15.20;69.80;;;;;;5070490;28;20045;-79
2021/10/13 11:29:31;;;;;;;6.22;2.00;;;15.30;69.70;;;;;;5078021;28;20102;-79
2021/10/13 11:32:17;;;;;;;6.47;1.90;;;15.30;69.50;;;;;;5073848;28;20045;-79
2021/10/13 11:35:05;;;;;;;8.50;2.30;;;15.30;69.30;;;;;;5073753;28;20511;-79
2021/10/13 11:37:32;;;;;;;7.47;1.95;;;15.30;69.20;;;;;;5073504;28;20044;-79
2021/10/13 11:39:59;;;;;;;6.28;2.03;;;15.30;69.10;;;;;;5073593;28;20533;-78
2021/10/13 11:42:27;;;;;;;13.73;3.08;;;15.40;69.00;;;;;;5072302;28;20051;-79
2021/10/13 11:44:56;;;;;;;9.90;2.10;;;15.30;68.90;;;;;;5072383;28;20489;-79
2021/10/13 11:47:35;;;;;;;6.55;2.30;;;15.40;68.80;;;;;;5076682;28;20102;-78
2021/10/13 11:50:14;;;;;;;6.22;2.15;;;15.40;68.70;;;;;;5073101;28;20535;-78
2021/10/13 11:52:43;;;;;;;8.07;2.20;;;15.40;68.60;;;;;;5073133;28;20048;-79
2021/10/13 11:55:15;;;;;;;6.13;1.90;;;15.40;68.60;;;;;;5073343;28;20044;-79
2021/10/13 11:57:54;;;;;;;7.65;2.45;;;15.40;68.40;;;;;;5073386;28;20052;-79
2021/10/13 12:00:23;;;;;;;8.65;2.10;;;15.40;68.30;;;;;;5071009;28;20114;-79
2021/10/13 12:03:10;;;;;;;6.45;1.80;;;15.40;68.30;;;;;;5073016;28;20045;-79
2021/10/13 12:05:39;;;;;;;7.35;2.20;;;15.30;68.20;;;;;;5088285;28;20397;-79
2021/10/13 12:08:12;;;;;;;11.77;2.50;;;15.40;68.10;;;;;;5074259;28;20201;-79
2021/10/13 12:10:50;;;;;;;6.10;2.08;;;15.30;68.00;;;;;;5073239;28;20068;-79
2021/10/13 12:13:26;;;;;;;5.10;1.80;;;15.30;67.90;;;;;;5072904;28;20455;-79
2021/10/13 12:16:20;;;;;;;7.80;2.58;;;15.30;67.90;;;;;;5073226;28;20068;-79
2021/10/13 12:18:47;;;;;;;5.45;1.98;;;15.30;67.90;;;;;;5072794;28;20051;-79
2021/10/13 12:21:22;;;;;;;8.38;1.98;;;15.30;67.90;;;;;;5069465;28;20444;-79
2021/10/13 12:23:55;;;;;;;10.73;2.25;;;15.20;67.80;;;;;;5072878;28;20052;-79
2021/10/13 12:26:26;;;;;;;12.20;2.47;;;15.20;67.90;;;;;;5075673;28;20053;-79
2021/10/13 12:29:09;;;;;;;6.82;2.20;;;15.20;67.90;;;;;;5073035;28;20048;-79
2021/10/13 12:31:36;;;;;;;5.05;1.88;;;15.20;67.80;;;;;;5072707;28;20048;-79
2021/10/13 12:34:14;;;;;;;5.80;1.98;;;15.20;67.80;;;;;;5072694;28;20045;-79
2021/10/13 12:36:54;;;;;;;8.55;1.90;;;15.20;67.80;;;;;;5072599;28;20040;-79
2021/10/13 12:39:24;;;;;;;8.15;1.85;;;15.20;67.70;;;;;;5070281;28;20134;-79
2021/10/13 12:41:51;;;;;;;10.48;2.78;;;15.20;67.60;;;;;;5072062;28;20556;-79
2021/10/13 12:44:24;;;;;;;5.38;1.80;;;15.20;67.50;;;;;;5074890;28;20053;-79
2021/10/13 12:47:15;;;;;;;7.35;2.20;;;15.20;67.40;;;;;;5072369;28;20044;-79
2021/10/13 12:49:47;;;;;;;6.68;2.00;;;15.20;67.30;;;;;;5072265;28;20525;-79
2021/10/13 12:52:21;;;;;;;5.93;2.00;;;15.20;67.20;;;;;;5072509;28;20048;-79
2021/10/13 12:54:50;;;;;;;;;;;15.20;67.20;;;;;;5072674;28;20048;-79
2021/10/13 12:57:20;;;;;;;5.88;1.83;;;15.30;67.10;;;;;;5069137;28;20340;-79
2021/10/13 12:59:49;;;;;;;8.90;2.83;;;15.30;67.00;;;;;;5073696;28;20049;-79
2021/10/13 13:02:17;;;;;;;5.50;1.77;;;15.20;67.00;;;;;;5074445;28;20455;-79
2021/10/13 13:04:45;;;;;;;6.50;2.10;;;15.30;67.00;;;;;;5071704;28;20135;-79
2021/10/13 13:07:13;;;;;;;9.20;1.67;;;15.30;67.00;;;;;;5073375;28;20048;-79
2021/10/13 13:09:41;;;;;;;6.97;2.00;;;15.30;67.00;;;;;;5071997;28;20090;-79